createdAt,value
2022-10-13T00:01:38.584Z,1.33
2022-10-13T00:04:10.728Z,1.15
2022-10-13T00:06:42.209Z,1.38
2022-10-13T00:09:14.147Z,1.83
2022-10-13T00:11:45.665Z,1.92
2022-10-13T00:14:17.580Z,1.55
2022-10-13T00:16:49.023Z,1.88
2022-10-13T00:19:20.527Z,1.42
2022-10-13T00:21:51.995Z,1.63
2022-10-13T00:24:23.875Z,2.15
2022-10-13T00:26:55.340Z,1.17
2022-10-13T00:29:26.802Z,1.30
2022-10-13T00:31:58.318Z,1.35
2022-10-13T00:34:30.076Z,1.63
2022-10-13T00:37:01.534Z,1.33
2022-10-13T00:39:33.373Z,1.90
2022-10-13T00:42:04.852Z,1.17
2022-10-13T00:44:36.627Z,2.00
2022-10-13T00:47:08.551Z,1.48
2022-10-13T00:49:40.390Z,1.90
2022-10-13T00:52:11.920Z,2.20
2022-10-13T00:54:43.707Z,2.40
2022-10-13T00:57:15.197Z,1.63
2022-10-13T00:59:46.935Z,1.65
2022-10-13T01:02:18.570Z,1.67
2022-10-13T01:04:50.515Z,1.60
2022-10-13T01:07:21.983Z,1.42
2022-10-13T01:09:53.750Z,1.17
2022-10-13T01:12:25.215Z,1.48
2022-10-13T01:14:56.976Z,1.67
2022-10-13T01:17:28.692Z,1.55
2022-10-13T01:20:00.521Z,1.60
2022-10-13T01:22:32.005Z,1.50
2022-10-13T01:25:03.936Z,1.83
2022-10-13T01:27:35.724Z,1.92
2022-10-13T01:30:07.216Z,1.25
2022-10-13T01:32:39.084Z,1.77
2022-10-13T01:35:10.701Z,1.90
2022-10-13T01:37:42.536Z,1.77
2022-10-13T01:40:13.999Z,1.65
2022-10-13T01:42:45.963Z,1.77
2022-10-13T01:45:17.410Z,1.37
2022-10-13T01:47:49.281Z,1.38
2022-10-13T01:50:20.744Z,1.58
2022-10-13T01:52:52.504Z,1.77
2022-10-13T01:55:23.980Z,2.03
2022-10-13T01:57:55.455Z,1.55
2022-10-13T02:00:26.978Z,1.70
2022-10-13T02:02:58.795Z,1.77
2022-10-13T02:05:30.241Z,2.08
2022-10-13T02:08:02.094Z,1.27
2022-10-13T02:10:33.565Z,1.73
2022-10-13T02:13:05.343Z,1.58
2022-10-13T02:15:36.822Z,1.60
2022-10-13T02:18:08.747Z,1.83
2022-10-13T02:20:40.237Z,1.80
2022-10-13T02:23:12.267Z,2.25
2022-10-13T02:25:43.715Z,1.10
2022-10-13T02:28:15.569Z,1.48
2022-10-13T02:30:47.078Z,1.27
2022-10-13T02:33:19.350Z,1.30
2022-10-13T02:35:50.805Z,1.02
2022-10-13T02:38:22.577Z,1.77
2022-10-13T02:40:54.930Z,2.10
2022-10-13T02:43:26.901Z,1.50
2022-10-13T02:45:58.399Z,1.27
2022-10-13T02:48:30.187Z,1.75
2022-10-13T02:51:01.650Z,1.10
2022-10-13T02:53:33.717Z,1.63
2022-10-13T02:56:05.168Z,2.33
2022-10-13T02:58:37.115Z,2.83
2022-10-13T03:01:08.696Z,1.13
2022-10-13T03:03:40.214Z,1.55
2022-10-13T03:06:11.703Z,1.58
2022-10-13T03:08:43.428Z,2.13
2022-10-13T03:11:14.931Z,1.65
2022-10-13T03:13:46.865Z,2.25
2022-10-13T03:16:18.405Z,2.33
2022-10-13T03:18:50.286Z,2.22
2022-10-13T03:21:21.747Z,2.13
2022-10-13T03:23:53.691Z,1.40
2022-10-13T03:26:25.172Z,2.15
2022-10-13T03:28:57.086Z,1.67
2022-10-13T03:31:28.598Z,1.60
2022-10-13T03:34:00.415Z,2.10
2022-10-13T03:36:31.976Z,2.30
2022-10-13T03:39:03.814Z,1.45
2022-10-13T03:41:35.340Z,1.77
2022-10-13T03:44:08.014Z,1.55
2022-10-13T03:46:39.520Z,1.45
2022-10-13T03:52:05.698Z,1.13
2022-10-13T03:54:37.498Z,1.70
2022-10-13T03:57:09.470Z,1.60
2022-10-13T03:59:41.030Z,2.03
2022-10-13T04:02:12.816Z,1.60
2022-10-13T04:04:44.298Z,1.35
2022-10-13T04:07:16.133Z,2.60
2022-10-13T04:09:47.627Z,2.08
2022-10-13T04:12:21.142Z,1.88
2022-10-13T04:14:53.741Z,2.03
2022-10-13T04:17:25.517Z,1.70
2022-10-13T04:19:56.991Z,1.98
2022-10-13T04:22:28.773Z,1.77
2022-10-13T04:25:00.248Z,1.60
2022-10-13T04:27:33.046Z,1.80
2022-10-13T04:30:04.502Z,1.65
2022-10-13T04:32:35.978Z,1.38
2022-10-13T04:35:07.419Z,2.20
2022-10-13T04:37:44.175Z,2.75
2022-10-13T04:40:16.501Z,2.05
2022-10-13T04:42:48.302Z,1.20
2022-10-13T04:45:19.793Z,1.88
2022-10-13T04:47:51.851Z,1.55
2022-10-13T04:50:23.337Z,1.77
2022-10-13T04:52:55.240Z,1.67
2022-10-13T04:55:26.722Z,1.40
2022-10-13T04:57:58.712Z,1.98
2022-10-13T05:00:30.263Z,1.97
2022-10-13T05:03:02.112Z,1.63
2022-10-13T05:05:33.829Z,1.90
2022-10-13T05:08:05.309Z,1.90
2022-10-13T05:10:36.771Z,2.13
2022-10-13T05:13:08.584Z,2.20
2022-10-13T05:15:40.100Z,2.42
2022-10-13T05:18:11.636Z,1.90
2022-10-13T05:20:43.162Z,1.45
2022-10-13T05:23:14.984Z,1.80
2022-10-13T05:25:46.443Z,1.77
2022-10-13T05:28:17.960Z,1.92
2022-10-13T05:30:49.468Z,1.92
2022-10-13T05:33:21.351Z,2.50
2022-10-13T05:35:52.839Z,1.73
2022-10-13T05:38:26.137Z,1.83
2022-10-13T05:40:57.772Z,1.92
2022-10-13T05:43:29.420Z,1.77
2022-10-13T05:46:00.909Z,2.30
2022-10-13T05:48:32.711Z,1.20
2022-10-13T05:51:04.396Z,1.20
2022-10-13T05:53:36.220Z,2.05
2022-10-13T05:56:07.700Z,2.10
2022-10-13T05:58:39.508Z,1.40
2022-10-13T06:01:10.992Z,2.08
2022-10-13T06:03:42.470Z,1.88
2022-10-13T06:06:13.935Z,1.63
2022-10-13T06:08:45.429Z,1.77
2022-10-13T06:11:17.610Z,2.25
2022-10-13T06:13:49.486Z,2.30
2022-10-13T06:16:20.939Z,2.10
2022-10-13T06:18:52.503Z,2.53
2022-10-13T06:21:24.220Z,1.83
2022-10-13T06:23:56.072Z,2.28
2022-10-13T06:26:27.535Z,2.20
2022-10-13T06:29:00.013Z,2.17
2022-10-13T06:31:31.603Z,2.42
2022-10-13T06:34:03.547Z,2.35
2022-10-13T06:36:35.013Z,2.15
2022-10-13T06:39:06.939Z,2.42
2022-10-13T06:41:38.464Z,1.65
2022-10-13T06:44:10.326Z,2.08
2022-10-13T06:46:41.859Z,1.98
2022-10-13T06:49:13.629Z,2.58
2022-10-13T06:51:45.093Z,3.10
2022-10-13T06:54:16.956Z,2.38
2022-10-13T06:56:48.434Z,2.45
2022-10-13T06:59:20.459Z,2.13
2022-10-13T07:01:52.306Z,3.23
2022-10-13T07:04:24.167Z,2.78
2022-10-13T07:06:55.657Z,2.63
2022-10-13T07:09:27.645Z,2.55
2022-10-13T07:11:59.451Z,2.05
2022-10-13T07:14:30.908Z,2.17
2022-10-13T07:17:02.841Z,2.50
2022-10-13T07:19:34.286Z,2.95
2022-10-13T07:22:06.133Z,2.55
2022-10-13T07:24:37.590Z,2.67
2022-10-13T07:27:09.394Z,2.40
2022-10-13T07:29:40.859Z,2.30
2022-10-13T07:32:12.682Z,2.72
2022-10-13T07:34:44.134Z,2.63
2022-10-13T07:37:15.984Z,2.58
2022-10-13T07:39:47.494Z,2.60
2022-10-13T07:42:19.306Z,2.97
2022-10-13T07:44:50.765Z,2.50
2022-10-13T07:47:22.766Z,2.55
2022-10-13T07:49:55.627Z,2.33
2022-10-13T07:52:27.468Z,2.30
2022-10-13T07:54:58.921Z,2.83
2022-10-13T07:57:30.887Z,2.35
2022-10-13T08:00:02.378Z,2.47
2022-10-13T08:02:35.161Z,2.55
2022-10-13T08:05:06.607Z,2.83
2022-10-13T08:07:39.561Z,2.75
2022-10-13T08:12:42.830Z,2.63
2022-10-13T08:15:14.291Z,2.60
2022-10-13T08:17:46.113Z,3.03
2022-10-13T08:20:17.569Z,2.83
2022-10-13T08:22:49.419Z,2.13
2022-10-13T08:25:20.875Z,3.28
2022-10-13T08:27:55.756Z,2.95
2022-10-13T08:30:31.237Z,3.13
2022-10-13T08:33:03.128Z,3.00
2022-10-13T08:35:35.142Z,2.70
2022-10-13T08:38:08.024Z,3.03
2022-10-13T08:40:39.520Z,3.05
2022-10-13T08:43:11.316Z,3.53
2022-10-13T08:45:42.832Z,3.40
2022-10-13T08:48:14.764Z,3.10
2022-10-13T08:50:46.228Z,3.10
2022-10-13T08:53:18.018Z,2.75
2022-10-13T08:55:50.002Z,3.28
2022-10-13T08:58:21.796Z,3.05
2022-10-13T09:00:53.249Z,3.13
2022-10-13T09:03:25.262Z,3.20
2022-10-13T09:05:56.726Z,3.13
2022-10-13T09:08:28.561Z,3.45
2022-10-13T09:11:00.056Z,3.10
2022-10-13T09:13:31.852Z,3.17
2022-10-13T09:16:03.350Z,3.10
2022-10-13T09:18:35.152Z,3.72
2022-10-13T09:21:06.635Z,2.90
2022-10-13T09:23:41.118Z,2.97
2022-10-13T09:26:13.526Z,3.35
2022-10-13T09:28:45.370Z,3.20
2022-10-13T09:31:17.108Z,3.15
2022-10-13T09:33:48.641Z,3.00
2022-10-13T09:36:20.415Z,2.92
2022-10-13T09:38:52.212Z,3.05
2022-10-13T09:41:23.751Z,3.80
2022-10-13T09:43:55.647Z,2.80
2022-10-13T09:46:27.124Z,3.17
2022-10-13T09:48:58.674Z,3.50
2022-10-13T09:51:30.942Z,3.70
2022-10-13T09:54:02.977Z,3.63
2022-10-13T09:56:34.755Z,3.63
2022-10-13T09:59:06.610Z,3.78
2022-10-13T10:01:38.110Z,3.38
2022-10-13T10:04:10.179Z,4.40
2022-10-13T10:06:42.081Z,3.17
2022-10-13T10:09:14.000Z,3.78
2022-10-13T10:11:45.469Z,3.58
2022-10-13T10:14:17.340Z,3.63
2022-10-13T10:16:48.816Z,3.30
2022-10-13T10:19:21.025Z,3.45
2022-10-13T10:21:52.561Z,3.17
2022-10-13T10:24:24.679Z,3.80
2022-10-13T10:26:56.199Z,3.40
2022-10-13T10:29:28.225Z,3.38
2022-10-13T10:31:59.687Z,2.93
2022-10-13T10:34:31.714Z,3.40
2022-10-13T10:37:03.476Z,3.50
2022-10-13T10:39:34.922Z,3.13
2022-10-13T10:42:06.812Z,3.58
2022-10-13T10:44:38.370Z,3.67
2022-10-13T10:47:10.359Z,3.05
2022-10-13T10:49:41.913Z,3.97
2022-10-13T10:52:13.722Z,3.08
2022-10-13T10:54:49.098Z,3.22
2022-10-13T10:57:21.682Z,3.10
2022-10-13T10:59:53.364Z,4.07
2022-10-13T11:02:25.277Z,3.10
2022-10-13T11:04:56.733Z,3.47
2022-10-13T11:07:28.375Z,3.75
2022-10-13T11:09:59.831Z,3.28
2022-10-13T11:12:32.395Z,3.70
2022-10-13T11:15:03.882Z,3.55
2022-10-13T11:17:38.143Z,3.20
2022-10-13T11:20:09.608Z,3.28
2022-10-13T11:22:42.032Z,3.30
2022-10-13T11:25:13.485Z,3.70
2022-10-13T11:27:45.420Z,3.35
2022-10-13T11:30:16.954Z,3.83
2022-10-13T11:32:55.939Z,2.90
2022-10-13T11:35:27.925Z,2.53
2022-10-13T11:38:07.643Z,3.17
2022-10-13T11:40:39.552Z,2.85
2022-10-13T11:43:11.458Z,3.28
2022-10-13T11:45:42.976Z,2.80
2022-10-13T11:48:15.200Z,2.42
2022-10-13T11:50:46.674Z,2.67
2022-10-13T11:53:19.842Z,2.13
2022-10-13T11:55:51.372Z,2.45
2022-10-13T11:58:23.199Z,2.83
2022-10-13T12:00:55.121Z,2.30
2022-10-13T12:03:26.659Z,2.37
2022-10-13T12:05:58.163Z,3.00
2022-10-13T12:08:30.009Z,2.55
2022-10-13T12:11:03.886Z,2.88
2022-10-13T12:13:35.678Z,2.80
2022-10-13T12:16:07.188Z,2.28
2022-10-13T12:18:40.030Z,2.70
2022-10-13T12:23:43.478Z,2.17
2022-10-13T12:26:14.926Z,2.40
2022-10-13T12:28:46.972Z,2.38
2022-10-13T12:31:18.464Z,2.20
2022-10-13T12:33:50.465Z,2.28
2022-10-13T12:36:21.916Z,2.53
2022-10-13T12:38:53.782Z,2.15
2022-10-13T12:41:25.254Z,2.45
2022-10-13T12:43:59.975Z,2.47
2022-10-13T12:46:34.014Z,2.47
2022-10-13T12:49:05.879Z,2.53
2022-10-13T12:51:37.582Z,2.13
2022-10-13T12:54:09.464Z,2.72
2022-10-13T12:56:41.229Z,2.47
2022-10-13T12:59:12.685Z,2.15
2022-10-13T13:01:44.839Z,2.53
2022-10-13T13:04:16.388Z,3.08
2022-10-13T13:06:48.142Z,2.42
2022-10-13T13:09:19.665Z,2.67
2022-10-13T13:11:51.433Z,2.53
2022-10-13T13:14:22.982Z,3.03
2022-10-13T13:16:59.055Z,2.50
2022-10-13T13:19:31.504Z,2.95
2022-10-13T13:22:04.140Z,3.13
2022-10-13T13:24:40.228Z,2.47
2022-10-13T13:27:12.338Z,2.90
2022-10-13T13:29:43.834Z,2.90
2022-10-13T13:32:15.494Z,2.95
2022-10-13T13:34:47.103Z,3.08
2022-10-13T13:37:19.157Z,2.97
2022-10-13T13:39:50.807Z,2.88
2022-10-13T13:42:22.634Z,3.13
2022-10-13T13:44:54.082Z,2.63
2022-10-13T13:47:25.535Z,2.63
2022-10-13T13:49:57.038Z,3.05
2022-10-13T13:52:28.955Z,2.75
2022-10-13T13:55:00.445Z,2.90
2022-10-13T13:57:32.256Z,2.40
2022-10-13T14:00:04.828Z,2.30
2022-10-13T14:02:36.591Z,2.90
2022-10-13T14:05:08.044Z,3.25
2022-10-13T14:07:39.833Z,2.67
2022-10-13T14:10:11.339Z,2.92
2022-10-13T14:12:43.177Z,3.10
2022-10-13T14:15:14.624Z,2.80
2022-10-13T14:17:46.398Z,3.30
2022-10-13T14:20:17.904Z,2.30
2022-10-13T14:22:49.670Z,2.80
2022-10-13T14:25:21.166Z,3.15
2022-10-13T14:27:52.952Z,2.55
2022-10-13T14:30:24.402Z,3.17
2022-10-13T14:32:56.207Z,2.55
2022-10-13T14:35:27.734Z,2.70
2022-10-13T14:37:59.525Z,2.42
2022-10-13T14:40:30.973Z,2.30
2022-10-13T14:43:02.732Z,2.90
2022-10-13T14:45:34.207Z,2.38
2022-10-13T14:48:06.065Z,3.03
2022-10-13T14:50:37.518Z,2.22
2022-10-13T14:53:15.523Z,2.40
2022-10-13T14:55:46.998Z,2.33
2022-10-13T14:58:18.777Z,2.65
2022-10-13T15:00:50.383Z,2.22
2022-10-13T15:03:22.289Z,1.85
2022-10-13T15:05:54.065Z,2.55
2022-10-13T15:08:25.877Z,2.30
2022-10-13T15:10:57.296Z,2.08
2022-10-13T15:13:29.244Z,2.30
2022-10-13T15:16:04.514Z,1.95
2022-10-13T15:18:39.486Z,2.00
2022-10-13T15:21:10.967Z,2.33
2022-10-13T15:23:42.453Z,2.08
2022-10-13T15:26:13.923Z,2.03
2022-10-13T15:28:45.835Z,2.20
2022-10-13T15:31:17.382Z,2.78
2022-10-13T15:33:49.217Z,1.88
2022-10-13T15:36:20.777Z,1.88
2022-10-13T15:38:52.621Z,2.08
2022-10-13T15:41:26.380Z,1.75
2022-10-13T15:43:58.147Z,2.35
2022-10-13T15:46:31.458Z,2.17
2022-10-13T15:49:03.237Z,2.33
2022-10-13T15:51:34.812Z,2.03
2022-10-13T15:54:06.289Z,2.00
2022-10-13T15:56:37.755Z,2.72
2022-10-13T15:59:09.535Z,2.25
2022-10-13T16:01:40.996Z,2.65
2022-10-13T16:04:12.474Z,2.40
2022-10-13T16:06:43.947Z,1.83
2022-10-13T16:09:15.725Z,1.92
2022-10-13T16:11:47.212Z,2.38
2022-10-13T16:14:19.080Z,2.47
2022-10-13T16:16:50.535Z,2.25
2022-10-13T16:19:22.346Z,2.03
2022-10-13T16:21:53.805Z,2.40
2022-10-13T16:24:25.639Z,2.17
2022-10-13T16:26:57.144Z,2.05
2022-10-13T16:29:28.891Z,2.88
2022-10-13T16:32:00.438Z,1.85
2022-10-13T16:34:32.320Z,2.33
2022-10-13T16:37:03.778Z,2.53
2022-10-13T16:39:39.913Z,2.42
2022-10-13T16:42:13.743Z,2.00
2022-10-13T16:44:45.529Z,2.95
2022-10-13T16:47:18.632Z,2.40
2022-10-13T16:49:50.392Z,2.20
2022-10-13T16:52:21.862Z,2.00
2022-10-13T16:54:53.315Z,2.50
2022-10-13T16:57:26.178Z,2.85
2022-10-13T16:59:57.626Z,2.28
2022-10-13T17:02:29.518Z,2.30
2022-10-13T17:05:00.980Z,2.33
2022-10-13T17:07:32.464Z,2.78
2022-10-13T17:10:03.925Z,2.80
2022-10-13T17:12:35.877Z,2.20
2022-10-13T17:15:07.464Z,1.80
2022-10-13T17:17:39.312Z,2.33
2022-10-13T17:20:12.314Z,2.00
2022-10-13T17:25:15.760Z,2.20
2022-10-13T17:27:47.463Z,2.78
2022-10-13T17:30:19.405Z,2.13
2022-10-13T17:32:52.083Z,2.50
2022-10-13T17:35:23.804Z,2.03
2022-10-13T17:37:55.331Z,2.50
2022-10-13T17:40:26.830Z,2.00
2022-10-13T17:42:58.606Z,1.90
2022-10-13T17:45:30.132Z,2.28
2022-10-13T17:48:02.077Z,2.50
2022-10-13T17:50:33.590Z,1.60
2022-10-13T17:53:05.407Z,2.53
2022-10-13T17:55:36.961Z,2.63
2022-10-13T17:58:08.645Z,2.33
2022-10-13T18:01:08.126Z,2.63
2022-10-13T18:03:31.917Z,2.53
2022-10-13T18:06:03.440Z,2.53
2022-10-13T18:08:35.263Z,2.75
2022-10-13T18:11:08.367Z,3.03
2022-10-13T18:13:40.184Z,2.80
2022-10-13T18:16:11.737Z,2.90
2022-10-13T18:18:46.558Z,3.78
2022-10-13T18:21:18.119Z,3.60
2022-10-13T18:23:49.609Z,2.40
2022-10-13T18:26:21.327Z,3.30
2022-10-13T18:28:52.922Z,4.28
2022-10-13T18:31:24.544Z,3.90
2022-10-13T18:33:56.116Z,3.47
2022-10-13T18:36:28.469Z,3.53
2022-10-13T18:38:59.922Z,3.30
2022-10-13T18:41:31.850Z,3.85
2022-10-13T18:44:06.179Z,4.15
2022-10-13T18:46:37.700Z,3.83
2022-10-13T18:49:09.225Z,4.20
2022-10-13T18:51:41.114Z,3.97
2022-10-13T18:54:12.674Z,3.05
2022-10-13T18:56:44.146Z,4.38
2022-10-13T18:59:15.594Z,4.10
2022-10-13T19:01:48.570Z,3.95
2022-10-13T19:04:21.455Z,3.17
2022-10-13T19:09:26.266Z,3.35
2022-10-13T19:14:30.512Z,3.15
2022-10-13T19:17:02.531Z,3.58
2022-10-13T19:19:34.134Z,3.60
2022-10-13T19:22:07.903Z,4.05
2022-10-13T19:24:39.436Z,3.92
2022-10-13T19:27:11.349Z,3.70
2022-10-13T19:29:42.847Z,4.45
2022-10-13T19:32:14.332Z,3.92
2022-10-13T19:34:45.817Z,4.72
2022-10-13T19:37:17.317Z,4.00
2022-10-13T19:39:48.763Z,3.45
2022-10-13T19:42:20.591Z,4.90
2022-10-13T19:44:52.084Z,4.93
2022-10-13T19:47:23.808Z,4.20
2022-10-13T19:49:55.502Z,4.10
2022-10-13T19:52:27.336Z,5.18
2022-10-13T19:54:59.037Z,4.75
2022-10-13T19:57:30.932Z,4.55
2022-10-13T20:00:02.435Z,4.47
2022-10-13T20:02:34.327Z,4.93
2022-10-13T20:05:05.783Z,4.85
2022-10-13T20:07:37.608Z,4.85
2022-10-13T20:10:09.124Z,5.07
2022-10-13T20:12:41.039Z,4.32
2022-10-13T20:15:12.557Z,4.28
2022-10-13T20:17:44.356Z,4.50
2022-10-13T20:20:18.888Z,5.55
2022-10-13T20:22:54.000Z,4.97
2022-10-13T20:25:25.654Z,4.75
2022-10-13T20:27:57.612Z,5.13
2022-10-13T20:30:29.191Z,5.43
2022-10-13T20:33:01.115Z,4.97
2022-10-13T20:35:32.653Z,5.47
2022-10-13T20:38:04.647Z,5.82
2022-10-13T20:40:36.156Z,4.57
2022-10-13T20:43:08.019Z,4.22
2022-10-13T20:45:39.536Z,4.75
2022-10-13T20:48:11.475Z,5.63
2022-10-13T20:50:42.965Z,5.25
2022-10-13T20:53:14.833Z,6.07
2022-10-13T20:55:46.418Z,3.90
2022-10-13T20:58:18.737Z,4.82
2022-10-13T21:00:50.312Z,5.30
2022-10-13T21:03:22.256Z,4.35
2022-10-13T21:05:53.790Z,4.85
2022-10-13T21:08:25.781Z,4.95
2022-10-13T21:10:57.323Z,4.38
2022-10-13T21:13:29.186Z,5.25
2022-10-13T21:16:00.698Z,4.97
2022-10-13T21:18:32.668Z,5.45
2022-10-13T21:21:04.211Z,5.60
2022-10-13T21:23:36.061Z,5.25
2022-10-13T21:26:07.541Z,5.65
2022-10-13T21:28:39.583Z,6.60
2022-10-13T21:31:11.129Z,5.93
2022-10-13T21:33:43.041Z,5.97
2022-10-13T21:36:14.510Z,5.47
2022-10-13T21:38:46.406Z,4.95
2022-10-13T21:41:18.386Z,5.15
2022-10-13T21:43:49.897Z,5.10
2022-10-13T21:46:21.710Z,5.93
2022-10-13T21:48:53.271Z,5.30
2022-10-13T21:51:25.162Z,4.90
2022-10-13T21:53:56.667Z,5.63
2022-10-13T21:56:28.479Z,4.75
2022-10-13T21:58:59.981Z,4.97
2022-10-13T22:01:31.757Z,4.90
2022-10-13T22:04:03.308Z,3.85
2022-10-13T22:06:35.169Z,5.82
2022-10-13T22:09:06.708Z,5.70
2022-10-13T22:11:38.554Z,5.22
2022-10-13T22:14:10.063Z,4.47
2022-10-13T22:16:41.565Z,5.45
2022-10-13T22:19:13.084Z,4.70
2022-10-13T22:21:44.954Z,5.25
2022-10-13T22:24:16.434Z,5.30
2022-10-13T22:26:48.300Z,4.95
2022-10-13T22:29:20.194Z,6.10
2022-10-13T22:31:52.135Z,4.93
2022-10-13T22:34:23.660Z,5.63
2022-10-13T22:36:55.144Z,4.80
2022-10-13T22:39:27.491Z,4.55
2022-10-13T22:41:59.393Z,5.78
2022-10-13T22:44:30.844Z,4.80
2022-10-13T22:47:02.647Z,5.00
2022-10-13T22:49:34.114Z,4.97
2022-10-13T22:52:06.367Z,4.15
2022-10-13T22:54:37.836Z,5.38
2022-10-13T22:57:09.661Z,5.18
2022-10-13T22:59:41.127Z,4.60
2022-10-13T23:02:13.045Z,5.70
2022-10-13T23:04:44.524Z,4.70
2022-10-13T23:07:16.504Z,4.38
2022-10-13T23:09:47.980Z,5.35
2022-10-13T23:12:19.821Z,5.53
2022-10-13T23:14:51.324Z,5.88
2022-10-13T23:17:23.705Z,4.32
2022-10-13T23:19:55.440Z,4.85
2022-10-13T23:22:27.273Z,4.45
2022-10-13T23:24:58.748Z,5.25
2022-10-13T23:27:30.520Z,3.65
2022-10-13T23:30:02.000Z,5.13
2022-10-13T23:32:33.813Z,4.65
2022-10-13T23:35:05.301Z,4.13
2022-10-13T23:37:37.071Z,4.68
2022-10-13T23:40:08.557Z,4.00
2022-10-13T23:42:40.307Z,4.45
2022-10-13T23:45:11.763Z,4.05
2022-10-13T23:47:43.707Z,5.22
2022-10-13T23:50:15.157Z,4.68
2022-10-13T23:52:46.992Z,4.55
2022-10-13T23:55:18.446Z,4.88
2022-10-13T23:57:50.171Z,5.32
